createdAt,value
2018-05-10T00:00:11.526Z,10.73
2018-05-10T00:02:40.146Z,11.10
2018-05-10T00:05:08.371Z,10.20
2018-05-10T00:07:36.575Z,10.80
2018-05-10T00:10:04.712Z,10.60
2018-05-10T00:12:32.861Z,11.67
2018-05-10T00:15:01.811Z,10.77
2018-05-10T00:17:29.953Z,11.20
2018-05-10T00:19:58.127Z,13.13
2018-05-10T00:22:26.281Z,10.60
2018-05-10T00:24:54.468Z,11.70
2018-05-10T00:27:22.635Z,11.20
2018-05-10T00:29:50.769Z,12.20
2018-05-10T00:32:19.033Z,11.90
2018-05-10T00:34:47.190Z,13.00
2018-05-10T00:37:15.372Z,11.40
2018-05-10T00:39:43.533Z,11.10
2018-05-10T00:42:11.892Z,11.87
2018-05-10T00:44:40.098Z,11.67
2018-05-10T00:47:08.258Z,11.20
2018-05-10T00:49:36.434Z,10.63
2018-05-10T00:52:04.610Z,11.03
2018-05-10T00:54:50.719Z,11.20
2018-05-10T00:57:18.870Z,10.50
2018-05-10T00:59:46.992Z,10.97
2018-05-10T01:02:15.920Z,9.73
2018-05-10T01:04:44.173Z,10.33
2018-05-10T01:07:12.268Z,10.70
2018-05-10T01:09:40.441Z,10.50
2018-05-10T01:12:08.693Z,11.00
2018-05-10T01:14:36.877Z,9.40
2018-05-10T01:17:05.037Z,10.63
2018-05-10T01:19:33.222Z,10.67
2018-05-10T01:22:01.660Z,10.97
2018-05-10T01:24:30.564Z,10.40
2018-05-10T01:26:59.542Z,10.90
2018-05-10T01:29:28.768Z,9.60
2018-05-10T01:31:56.916Z,10.67
2018-05-10T01:34:25.951Z,10.67
2018-05-10T01:36:54.140Z,9.50
2018-05-10T01:39:22.389Z,9.50
2018-05-10T01:41:50.506Z,10.37
2018-05-10T01:44:18.678Z,10.20
2018-05-10T01:46:46.810Z,10.63
2018-05-10T01:49:14.938Z,9.83
2018-05-10T01:51:43.098Z,9.63
2018-05-10T01:54:11.266Z,10.70
2018-05-10T01:56:39.488Z,9.83
2018-05-10T01:59:08.452Z,10.10
2018-05-10T02:01:37.400Z,9.63
2018-05-10T02:04:05.555Z,8.93
2018-05-10T02:06:33.683Z,7.90
2018-05-10T02:09:01.831Z,10.47
2018-05-10T02:11:29.948Z,8.60
2018-05-10T02:13:58.836Z,10.20
2018-05-10T02:16:27.754Z,9.80
2018-05-10T02:18:55.868Z,8.77
2018-05-10T02:21:24.026Z,8.87
2018-05-10T02:23:52.198Z,9.77
2018-05-10T02:26:20.436Z,9.80
2018-05-10T02:28:48.602Z,9.47
2018-05-10T02:31:16.763Z,9.63
2018-05-10T02:33:44.898Z,11.27
2018-05-10T02:36:13.070Z,9.37
2018-05-10T02:38:41.238Z,11.03
2018-05-10T02:41:09.501Z,9.93
2018-05-10T02:43:37.676Z,11.40
2018-05-10T02:46:05.853Z,10.03
2018-05-10T02:48:33.980Z,10.63
2018-05-10T02:51:02.880Z,10.20
2018-05-10T02:53:31.067Z,10.80
2018-05-10T02:55:59.510Z,11.20
2018-05-10T02:58:28.418Z,9.60
2018-05-10T03:00:56.595Z,9.60
2018-05-10T03:03:24.716Z,9.53
2018-05-10T03:05:52.874Z,9.83
2018-05-10T03:08:21.046Z,9.73
2018-05-10T03:10:49.252Z,9.90
2018-05-10T03:13:18.190Z,9.87
2018-05-10T03:15:46.970Z,9.77
2018-05-10T03:18:15.170Z,11.33
2018-05-10T03:20:43.309Z,10.00
2018-05-10T03:23:11.448Z,9.83
2018-05-10T03:25:39.582Z,9.80
2018-05-10T03:28:07.756Z,10.23
2018-05-10T03:30:35.936Z,11.43
2018-05-10T03:33:04.440Z,10.90
2018-05-10T03:35:32.714Z,9.33
2018-05-10T03:38:00.869Z,9.27
2018-05-10T03:40:29.104Z,10.40
2018-05-10T03:42:57.233Z,10.10
2018-05-10T03:45:25.411Z,10.50
2018-05-10T03:47:53.582Z,9.43
2018-05-10T03:50:22.720Z,10.37
2018-05-10T03:52:50.853Z,12.20
2018-05-10T03:55:19.010Z,10.70
2018-05-10T03:57:47.203Z,10.43
2018-05-10T04:00:16.101Z,10.83
2018-05-10T04:06:21.056Z,9.33
2018-05-10T04:09:08.110Z,9.63
2018-05-10T04:11:36.282Z,10.67
2018-05-10T04:14:04.451Z,10.43
2018-05-10T04:16:32.613Z,10.37
2018-05-10T04:19:00.738Z,9.17
2018-05-10T04:21:28.909Z,9.63
2018-05-10T04:23:57.201Z,9.70
2018-05-10T04:26:26.138Z,10.43
2018-05-10T04:28:54.276Z,9.53
2018-05-10T04:31:23.203Z,10.37
2018-05-10T04:33:51.332Z,9.00
2018-05-10T04:36:19.498Z,9.10
2018-05-10T04:38:48.458Z,9.17
2018-05-10T04:41:16.594Z,9.70
2018-05-10T04:43:44.734Z,9.60
2018-05-10T04:46:13.644Z,10.00
2018-05-10T04:48:42.575Z,8.97
2018-05-10T04:51:10.730Z,10.27
2018-05-10T04:53:39.272Z,9.30
2018-05-10T04:56:08.160Z,8.87
2018-05-10T04:58:37.068Z,10.10
2018-05-10T05:01:05.944Z,9.93
2018-05-10T05:03:34.857Z,9.53
2018-05-10T05:06:03.056Z,9.37
2018-05-10T05:08:31.222Z,9.23
2018-05-10T05:10:59.393Z,10.10
2018-05-10T05:13:27.551Z,9.27
2018-05-10T05:15:55.704Z,9.33
2018-05-10T05:18:24.610Z,9.20
2018-05-10T05:20:52.740Z,10.03
2018-05-10T05:23:20.950Z,10.37
2018-05-10T05:25:49.167Z,8.27
2018-05-10T05:28:17.324Z,8.40
2018-05-10T05:30:45.478Z,9.20
2018-05-10T05:33:13.645Z,8.70
2018-05-10T05:35:41.830Z,10.63
2018-05-10T05:38:09.998Z,7.90
2018-05-10T05:40:38.142Z,8.63
2018-05-10T05:43:07.196Z,8.57
2018-05-10T05:45:35.242Z,8.33
2018-05-10T05:48:03.459Z,9.27
2018-05-10T05:50:31.584Z,8.47
2018-05-10T05:52:59.743Z,10.70
2018-05-10T05:55:27.916Z,8.67
2018-05-10T05:57:56.047Z,8.80
2018-05-10T06:00:24.218Z,8.23
2018-05-10T06:02:52.382Z,8.87
2018-05-10T06:05:20.525Z,9.40
2018-05-10T06:07:48.691Z,8.43
2018-05-10T06:10:16.829Z,10.07
2018-05-10T06:12:45.745Z,9.20
2018-05-10T06:15:14.036Z,8.60
2018-05-10T06:17:42.475Z,8.70
2018-05-10T06:20:10.674Z,8.70
2018-05-10T06:22:38.836Z,8.13
2018-05-10T06:25:07.105Z,10.30
2018-05-10T06:27:35.182Z,8.87
2018-05-10T06:30:03.351Z,8.30
2018-05-10T06:32:31.513Z,8.93
2018-05-10T06:35:00.449Z,9.07
2018-05-10T06:37:28.579Z,8.60
2018-05-10T06:39:57.526Z,8.03
2018-05-10T06:42:25.665Z,9.63
2018-05-10T06:44:53.826Z,8.90
2018-05-10T06:47:22.014Z,8.90
2018-05-10T06:49:50.210Z,7.87
2018-05-10T06:52:19.083Z,8.40
2018-05-10T06:54:47.454Z,7.53
2018-05-10T06:57:15.615Z,8.37
2018-05-10T06:59:43.785Z,8.37
2018-05-10T07:02:11.978Z,7.80
2018-05-10T07:04:40.142Z,8.63
2018-05-10T07:07:08.380Z,9.13
2018-05-10T07:09:36.615Z,8.40
2018-05-10T07:12:05.581Z,8.47
2018-05-10T07:14:33.770Z,7.50
2018-05-10T07:17:01.928Z,8.03
2018-05-10T07:19:30.115Z,7.50
2018-05-10T07:21:58.434Z,8.53
2018-05-10T07:24:27.353Z,8.00
2018-05-10T07:26:56.293Z,7.20
2018-05-10T07:29:24.503Z,7.30
2018-05-10T07:31:53.458Z,6.90
2018-05-10T07:34:21.586Z,6.73
2018-05-10T07:36:49.720Z,7.20
2018-05-10T07:39:17.836Z,7.00
2018-05-10T07:41:46.005Z,8.17
2018-05-10T07:44:14.217Z,6.90
2018-05-10T07:46:42.353Z,7.80
2018-05-10T07:49:10.479Z,6.63
2018-05-10T07:51:38.639Z,8.00
2018-05-10T07:54:06.810Z,7.30
2018-05-10T07:56:35.002Z,7.30
2018-05-10T07:59:03.143Z,6.77
2018-05-10T08:01:31.314Z,6.80
2018-05-10T08:03:59.654Z,6.57
2018-05-10T08:06:28.601Z,7.23
2018-05-10T08:08:56.863Z,7.63
2018-05-10T08:11:24.996Z,6.40
2018-05-10T08:13:53.888Z,7.90
2018-05-10T08:16:22.813Z,7.70
2018-05-10T08:18:51.625Z,6.73
2018-05-10T08:21:26.490Z,6.50
2018-05-10T08:23:55.774Z,6.90
2018-05-10T08:26:24.670Z,8.50
2018-05-10T08:28:53.609Z,6.87
2018-05-10T08:31:21.732Z,6.93
2018-05-10T08:33:50.624Z,7.40
2018-05-10T08:36:19.573Z,6.90
2018-05-10T08:38:47.726Z,6.23
2018-05-10T08:41:15.920Z,7.00
2018-05-10T08:43:44.068Z,5.87
2018-05-10T08:46:12.234Z,6.80
2018-05-10T08:48:40.348Z,7.20
2018-05-10T08:51:08.474Z,7.20
2018-05-10T08:53:36.610Z,7.67
2018-05-10T08:56:04.754Z,6.13
2018-05-10T08:58:32.957Z,6.37
2018-05-10T09:01:01.852Z,7.00
2018-05-10T09:03:30.755Z,7.30
2018-05-10T09:05:59.668Z,7.13
2018-05-10T09:08:27.825Z,6.60
2018-05-10T09:10:55.993Z,6.43
2018-05-10T09:13:24.166Z,7.10
2018-05-10T09:15:52.311Z,6.90
2018-05-10T09:18:20.469Z,6.90
2018-05-10T09:20:48.592Z,6.57
2018-05-10T09:23:16.800Z,7.07
2018-05-10T09:25:44.949Z,6.53
2018-05-10T09:28:13.091Z,7.03
2018-05-10T09:30:41.981Z,7.17
2018-05-10T09:33:11.405Z,7.50
2018-05-10T09:35:39.570Z,7.43
2018-05-10T09:38:07.732Z,6.57
2018-05-10T09:40:36.616Z,7.07
2018-05-10T09:43:05.526Z,6.70
2018-05-10T09:45:33.699Z,6.60
2018-05-10T09:48:01.918Z,6.63
2018-05-10T09:50:30.244Z,5.80
2018-05-10T09:52:58.424Z,7.20
2018-05-10T09:55:26.600Z,6.20
2018-05-10T09:57:54.781Z,6.40
2018-05-10T10:00:28.401Z,7.40
2018-05-10T10:02:56.540Z,6.57
2018-05-10T10:05:24.674Z,6.17
2018-05-10T10:07:52.792Z,6.60
2018-05-10T10:10:20.916Z,6.70
2018-05-10T10:12:49.079Z,7.10
2018-05-10T10:15:17.224Z,6.73
2018-05-10T10:17:45.346Z,6.30
2018-05-10T10:20:13.473Z,6.17
2018-05-10T10:22:41.668Z,6.83
2018-05-10T10:25:09.824Z,6.70
2018-05-10T10:27:37.936Z,5.53
2018-05-10T10:30:06.098Z,6.37
2018-05-10T10:32:34.215Z,5.80
2018-05-10T10:35:02.361Z,6.50
2018-05-10T10:37:31.282Z,5.83
2018-05-10T10:39:59.461Z,5.63
2018-05-10T10:42:27.585Z,5.50
2018-05-10T10:44:57.085Z,5.37
2018-05-10T10:47:26.027Z,6.43
2018-05-10T10:49:54.160Z,6.03
2018-05-10T10:52:23.075Z,6.13
2018-05-10T10:54:51.258Z,5.57
2018-05-10T10:57:19.400Z,5.67
2018-05-10T10:59:48.289Z,5.27
2018-05-10T11:02:17.197Z,5.00
2018-05-10T11:04:45.362Z,4.73
2018-05-10T11:07:13.493Z,6.37
2018-05-10T11:09:41.708Z,5.03
2018-05-10T11:12:10.597Z,5.90
2018-05-10T11:14:39.502Z,5.87
2018-05-10T11:17:07.641Z,6.13
2018-05-10T11:19:35.880Z,5.37
2018-05-10T11:22:04.024Z,5.90
2018-05-10T11:24:32.145Z,5.40
2018-05-10T11:27:00.745Z,5.77
2018-05-10T11:29:28.880Z,6.40
2018-05-10T11:31:57.041Z,6.07
2018-05-10T11:34:25.199Z,5.73
2018-05-10T11:36:53.336Z,6.10
2018-05-10T11:39:22.258Z,5.50
2018-05-10T11:41:50.420Z,6.90
2018-05-10T11:44:18.594Z,5.67
2018-05-10T11:46:46.764Z,6.10
2018-05-10T11:49:14.905Z,6.93
2018-05-10T11:51:43.046Z,6.77
2018-05-10T11:54:11.184Z,5.03
2018-05-10T11:56:39.358Z,5.37
2018-05-10T11:59:08.210Z,5.07
2018-05-10T12:01:36.380Z,5.73
2018-05-10T12:04:05.290Z,5.87
2018-05-10T12:06:34.233Z,5.73
2018-05-10T12:09:02.407Z,5.63
2018-05-10T12:11:30.567Z,6.57
2018-05-10T12:13:58.700Z,5.00
2018-05-10T12:16:27.646Z,5.27
2018-05-10T12:18:55.844Z,4.73
2018-05-10T12:21:23.978Z,5.33
2018-05-10T12:23:52.150Z,6.13
2018-05-10T12:26:20.327Z,5.67
2018-05-10T12:28:48.499Z,5.73
2018-05-10T12:31:16.628Z,5.87
2018-05-10T12:33:45.573Z,6.20
2018-05-10T12:36:13.812Z,5.00
2018-05-10T12:38:41.920Z,5.73
2018-05-10T12:41:10.125Z,4.20
2018-05-10T12:43:39.013Z,5.67
2018-05-10T12:46:07.198Z,5.40
2018-05-10T12:48:35.441Z,6.00
2018-05-10T12:51:03.568Z,5.93
2018-05-10T12:53:31.768Z,5.83
2018-05-10T12:55:59.898Z,5.50
2018-05-10T12:58:28.068Z,6.13
2018-05-10T13:00:56.248Z,6.30
2018-05-10T13:03:24.381Z,4.90
2018-05-10T13:05:52.550Z,5.47
2018-05-10T13:08:20.779Z,5.10
2018-05-10T13:10:48.980Z,4.70
2018-05-10T13:13:17.236Z,5.77
2018-05-10T13:15:46.112Z,5.20
2018-05-10T13:18:15.104Z,4.43
2018-05-10T13:20:43.317Z,4.93
2018-05-10T13:23:11.602Z,5.13
2018-05-10T13:25:40.365Z,5.80
2018-05-10T13:28:09.185Z,4.50
2018-05-10T13:30:37.318Z,4.30
2018-05-10T13:33:05.440Z,4.77
2018-05-10T13:35:33.718Z,4.80
2018-05-10T13:38:02.641Z,5.13
2018-05-10T13:40:30.757Z,5.33
2018-05-10T13:42:58.965Z,4.10
2018-05-10T13:45:27.918Z,5.17
2018-05-10T13:47:56.078Z,5.47
2018-05-10T13:50:24.206Z,5.03
2018-05-10T13:52:53.162Z,5.00
2018-05-10T13:55:21.310Z,5.07
2018-05-10T13:57:49.498Z,4.83
2018-05-10T14:00:17.654Z,4.60
2018-05-10T14:02:45.785Z,5.43
2018-05-10T14:05:14.717Z,4.70
2018-05-10T14:07:42.884Z,5.10
2018-05-10T14:10:11.141Z,5.23
2018-05-10T14:12:39.273Z,5.27
2018-05-10T14:15:07.419Z,4.60
2018-05-10T14:17:35.672Z,4.07
2018-05-10T14:20:03.862Z,3.60
2018-05-10T14:22:32.041Z,3.57
2018-05-10T14:25:00.172Z,3.97
2018-05-10T14:27:28.315Z,4.20
2018-05-10T14:29:57.261Z,4.43
2018-05-10T14:32:25.407Z,4.17
2018-05-10T14:34:53.606Z,5.03
2018-05-10T14:37:21.853Z,5.00
2018-05-10T14:39:49.987Z,4.67
2018-05-10T14:42:18.135Z,4.47
2018-05-10T14:44:46.276Z,5.60
2018-05-10T14:47:14.470Z,5.37
2018-05-10T14:49:42.585Z,5.13
2018-05-10T14:52:10.734Z,5.43
2018-05-10T14:54:38.902Z,5.67
2018-05-10T14:57:07.054Z,4.50
2018-05-10T14:59:35.194Z,5.10
2018-05-10T15:02:04.077Z,4.57
2018-05-10T15:04:33.016Z,5.00
2018-05-10T15:07:01.189Z,4.70
2018-05-10T15:09:29.324Z,4.17
2018-05-10T15:11:58.236Z,4.33
2018-05-10T15:14:26.353Z,4.57
2018-05-10T15:16:54.460Z,4.37
2018-05-10T15:19:23.357Z,5.10
2018-05-10T15:21:51.477Z,6.00
2018-05-10T15:24:19.645Z,5.80
2018-05-10T15:26:47.756Z,6.80
2018-05-10T15:29:16.689Z,5.40
2018-05-10T15:31:44.956Z,6.13
2018-05-10T15:34:13.014Z,6.60
2018-05-10T15:36:41.302Z,5.40
2018-05-10T15:39:09.438Z,5.47
2018-05-10T15:41:38.375Z,7.40
2018-05-10T15:44:06.662Z,6.40
2018-05-10T15:46:34.829Z,5.60
2018-05-10T15:49:03.022Z,6.80
2018-05-10T15:51:31.199Z,5.27
2018-05-10T15:53:59.321Z,5.60
2018-05-10T15:56:27.434Z,5.40
2018-05-10T15:58:55.650Z,6.00
2018-05-10T16:01:23.815Z,6.50
2018-05-10T16:03:52.713Z,6.87
2018-05-10T16:06:20.878Z,5.57
2018-05-10T16:08:49.818Z,5.90
2018-05-10T16:11:18.054Z,6.73
2018-05-10T16:13:46.320Z,6.20
2018-05-10T16:16:14.428Z,7.43
2018-05-10T16:18:43.144Z,6.50
2018-05-10T16:21:11.263Z,6.63
2018-05-10T16:23:39.442Z,7.77
2018-05-10T16:26:07.605Z,7.90
2018-05-10T16:28:35.801Z,6.77
2018-05-10T16:31:03.920Z,6.27
2018-05-10T16:33:32.862Z,6.23
2018-05-10T16:36:00.990Z,6.13
2018-05-10T16:38:29.999Z,6.87
2018-05-10T16:40:58.210Z,5.70
2018-05-10T16:43:26.342Z,6.23
2018-05-10T16:45:55.266Z,6.20
2018-05-10T16:48:23.412Z,6.63
2018-05-10T16:50:51.577Z,6.10
2018-05-10T16:53:20.565Z,7.27
2018-05-10T16:55:48.664Z,7.20
2018-05-10T16:58:16.785Z,6.40
2018-05-10T17:00:45.025Z,5.63
2018-05-10T17:03:13.189Z,9.73
2018-05-10T17:05:41.325Z,13.60
2018-05-10T17:08:10.259Z,11.90
2018-05-10T17:10:38.418Z,11.07
2018-05-10T17:13:06.560Z,13.90
2018-05-10T17:15:35.505Z,15.53
2018-05-10T17:18:03.685Z,15.67
2018-05-10T17:20:31.870Z,17.40
2018-05-10T17:23:00.115Z,20.30
2018-05-10T17:25:28.274Z,1.97
2018-05-10T17:27:56.421Z,1.77
2018-05-10T17:30:25.357Z,1.20
2018-05-10T17:32:53.525Z,1.40
2018-05-10T17:35:21.690Z,1.10
2018-05-10T17:37:49.934Z,1.40
2018-05-10T17:40:19.285Z,1.77
2018-05-10T17:42:47.436Z,1.30
2018-05-10T17:45:15.598Z,1.30
2018-05-10T17:47:43.805Z,1.37
2018-05-10T17:50:11.920Z,2.10
2018-05-10T17:52:40.850Z,1.20
2018-05-10T17:55:09.019Z,2.87
2018-05-10T17:57:37.238Z,1.77
2018-05-10T18:00:05.439Z,2.23
2018-05-10T18:02:33.596Z,1.80
2018-05-10T18:05:02.485Z,1.83
2018-05-10T18:07:31.371Z,2.00
2018-05-10T18:10:00.328Z,2.20
2018-05-10T18:12:28.486Z,1.53
2018-05-10T18:14:56.667Z,1.83
2018-05-10T18:17:24.823Z,1.33
2018-05-10T18:19:52.978Z,1.93
2018-05-10T18:22:21.129Z,1.47
2018-05-10T18:24:50.039Z,1.60
2018-05-10T18:27:18.173Z,2.13
2018-05-10T18:29:46.311Z,1.93
2018-05-10T18:32:14.521Z,2.27
2018-05-10T18:34:42.652Z,2.17
2018-05-10T18:37:10.838Z,1.30
2018-05-10T18:39:39.900Z,2.17
2018-05-10T18:42:08.046Z,1.73
2018-05-10T18:44:36.961Z,1.73
2018-05-10T18:47:05.123Z,2.00
2018-05-10T18:49:34.157Z,2.63
2018-05-10T18:52:02.442Z,3.30
2018-05-10T18:54:30.657Z,2.40
2018-05-10T18:56:59.657Z,2.67
2018-05-10T18:59:28.570Z,2.03
2018-05-10T19:01:56.803Z,3.10
2018-05-10T19:04:24.962Z,2.73
2018-05-10T19:06:53.512Z,2.23
2018-05-10T19:09:21.665Z,2.13
2018-05-10T19:11:50.684Z,2.30
2018-05-10T19:14:18.831Z,2.80
2018-05-10T19:16:47.032Z,4.10
2018-05-10T19:19:15.164Z,3.43
2018-05-10T19:21:43.283Z,2.90
2018-05-10T19:24:11.566Z,2.70
2018-05-10T19:26:39.746Z,3.00
2018-05-10T19:29:07.923Z,3.40
2018-05-10T19:31:36.203Z,3.83
2018-05-10T19:34:04.362Z,3.07
2018-05-10T19:36:32.534Z,4.20
2018-05-10T19:39:00.676Z,3.17
2018-05-10T19:41:28.804Z,3.40
2018-05-10T19:43:57.755Z,3.73
2018-05-10T19:46:26.078Z,3.70
2018-05-10T19:48:55.003Z,3.80
2018-05-10T19:51:23.199Z,3.60
2018-05-10T19:53:51.385Z,4.73
2018-05-10T19:56:19.512Z,3.37
2018-05-10T19:58:47.685Z,3.77
2018-05-10T20:01:15.839Z,2.23
2018-05-10T20:03:44.067Z,4.17
2018-05-10T20:06:12.201Z,4.70
2018-05-10T20:08:40.369Z,3.97
2018-05-10T20:11:08.523Z,3.67
2018-05-10T20:13:37.575Z,2.13
2018-05-10T20:16:06.411Z,2.80
2018-05-10T20:18:35.346Z,3.47
2018-05-10T20:21:03.912Z,3.73
2018-05-10T20:23:32.075Z,5.10
2018-05-10T20:26:00.906Z,5.43
2018-05-10T20:28:29.790Z,5.13
2018-05-10T20:30:57.913Z,3.57
2018-05-10T20:33:26.797Z,5.93
2018-05-10T20:35:55.735Z,4.53
2018-05-10T20:38:24.006Z,2.23
2018-05-10T20:40:52.146Z,3.63
2018-05-10T20:43:20.322Z,3.40
2018-05-10T20:45:48.448Z,1.70
2018-05-10T20:48:16.594Z,3.13
2018-05-10T20:50:44.855Z,2.30
2018-05-10T20:53:13.061Z,2.27
2018-05-10T20:55:41.609Z,3.90
2018-05-10T20:58:09.775Z,2.93
2018-05-10T21:00:37.921Z,3.57
2018-05-10T21:03:06.833Z,2.70
2018-05-10T21:05:34.992Z,2.03
2018-05-10T21:08:03.891Z,2.30
2018-05-10T21:10:32.063Z,5.47
2018-05-10T21:13:00.274Z,2.37
2018-05-10T21:15:28.423Z,3.20
2018-05-10T21:17:56.608Z,2.83
2018-05-10T21:20:25.541Z,3.90
2018-05-10T21:22:53.668Z,2.80
2018-05-10T21:25:21.992Z,2.50
2018-05-10T21:27:50.129Z,2.10
2018-05-10T21:30:18.266Z,3.23
2018-05-10T21:32:46.383Z,3.20
2018-05-10T21:35:14.571Z,4.03
2018-05-10T21:37:42.689Z,3.30
2018-05-10T21:40:10.887Z,3.47
2018-05-10T21:42:39.043Z,2.03
2018-05-10T21:45:07.214Z,2.40
2018-05-10T21:47:35.415Z,2.93
2018-05-10T21:50:05.546Z,2.90
2018-05-10T21:52:34.129Z,3.17
2018-05-10T21:55:02.456Z,4.53
2018-05-10T21:57:30.987Z,2.40
2018-05-10T21:59:59.113Z,3.47
2018-05-10T22:02:27.282Z,2.23
2018-05-10T22:04:55.480Z,1.90
2018-05-10T22:07:23.691Z,3.17
2018-05-10T22:09:51.840Z,2.53
2018-05-10T22:12:20.145Z,3.60
2018-05-10T22:14:49.037Z,3.10
2018-05-10T22:17:17.149Z,3.23
2018-05-10T22:19:45.329Z,3.00
2018-05-10T22:22:13.477Z,3.60
2018-05-10T22:24:41.605Z,4.17
2018-05-10T22:27:09.782Z,3.03
2018-05-10T22:29:47.858Z,3.73
2018-05-10T22:32:16.021Z,3.30
2018-05-10T22:34:44.175Z,3.23
2018-05-10T22:37:12.343Z,3.97
2018-05-10T22:39:40.570Z,3.20
2018-05-10T22:42:09.360Z,2.63
2018-05-10T22:44:37.473Z,3.63
2018-05-10T22:47:06.397Z,3.07
2018-05-10T22:49:34.521Z,3.17
2018-05-10T22:52:03.483Z,2.03
2018-05-10T22:54:31.617Z,3.10
2018-05-10T22:56:59.741Z,2.70
2018-05-10T22:59:27.921Z,2.63
2018-05-10T23:01:56.077Z,2.70
2018-05-10T23:04:24.201Z,4.03
2018-05-10T23:06:52.386Z,5.57
2018-05-10T23:09:20.538Z,3.73
2018-05-10T23:11:48.717Z,2.47
2018-05-10T23:14:16.860Z,3.07
2018-05-10T23:16:44.977Z,3.83
2018-05-10T23:19:13.135Z,4.60
2018-05-10T23:21:41.398Z,3.27
2018-05-10T23:24:10.944Z,5.17
2018-05-10T23:26:39.090Z,3.53
2018-05-10T23:29:07.271Z,4.13
2018-05-10T23:31:35.427Z,4.63
2018-05-10T23:34:03.552Z,3.40
2018-05-10T23:36:31.721Z,4.97
2018-05-10T23:38:59.907Z,2.10
2018-05-10T23:41:28.048Z,5.17
2018-05-10T23:43:56.326Z,2.60
2018-05-10T23:46:24.462Z,3.67
2018-05-10T23:48:53.010Z,3.77
2018-05-10T23:51:21.161Z,4.87
2018-05-10T23:53:49.318Z,2.83
2018-05-10T23:56:17.476Z,3.43
2018-05-10T23:58:45.617Z,3.63
